Time;durP1;ratioP1;P1;durP2;ratioP2;P2;SDS_P1;SDS_P2;PMS_P1;PMS_P2;Temp;Humidity;BMP_temperature;BMP_pressure;BME280_temperature;BME280_humidity;BME280_pressure;Samples;Min_cycle;Max_cycle;Signal;HPM_P1;HPM_P2
2022/01/04 00:00:04;;;;;;;8.50;7.10;;;;;;;;;;5053330;28;20049;-59
2022/01/04 00:02:30;;;;;;;9.20;7.60;;;;;;;;;;5053564;28;20554;-59
2022/01/04 00:04:57;;;;;;;11.10;7.90;;;;;;;;;;5052568;28;20111;-59
2022/01/04 00:07:23;;;;;;;11.55;8.10;;;;;;;;;;5053677;28;20118;-59
2022/01/04 00:09:52;;;;;;;10.82;7.70;;;;;;;;;;5053376;28;20465;-59
2022/01/04 00:15:03;;;;;;;13.13;7.70;;;;;;;;;;5053396;28;20134;-59
2022/01/04 00:17:30;;;;;;;9.25;7.70;;;;;;;;;;5053522;28;20095;-59
2022/01/04 00:19:56;;;;;;;11.68;7.65;;;;;;;;;;5052607;28;20048;-59
2022/01/04 00:22:22;;;;;;;10.57;7.90;;;;;;;;;;5053206;28;20111;-59
2022/01/04 00:24:48;;;;;;;11.13;8.15;;;;;;;;;;5052375;28;20044;-59
2022/01/04 00:27:14;;;;;;;9.57;8.05;;;;;;;;;;5053019;28;20392;-59
2022/01/04 00:29:42;;;;;;;11.40;8.07;;;;;;;;;;5053512;28;20385;-59
2022/01/04 00:32:09;;;;;;;12.88;8.30;;;;;;;;;;5052189;28;20557;-59
2022/01/04 00:34:35;;;;;;;9.63;8.30;;;;;;;;;;5053338;28;20111;-59
2022/01/04 00:37:01;;;;;;;10.98;8.15;;;;;;;;;;5052836;28;20049;-59
2022/01/04 00:39:28;;;;;;;10.55;8.50;;;;;;;;;;5052370;28;20114;-59
2022/01/04 00:41:54;;;;;;;11.63;8.70;;;;;;;;;;5052421;28;20049;-59
2022/01/04 00:44:20;;;;;;;11.00;8.65;;;;;;;;;;5053171;28;20056;-59
2022/01/04 00:46:48;;;;;;;12.68;9.30;;;;;;;;;;5051908;28;20049;-59
2022/01/04 00:49:17;;;;;;;11.77;8.68;;;;;;;;;;5053018;28;20228;-59
2022/01/04 00:51:44;;;;;;;11.73;8.48;;;;;;;;;;5052472;28;20048;-59
2022/01/04 00:54:11;;;;;;;9.95;8.27;;;;;;;;;;5052100;28;20196;-59
2022/01/04 00:56:38;;;;;;;10.40;8.90;;;;;;;;;;5052855;28;20131;-59
2022/01/04 00:59:04;;;;;;;11.50;9.25;;;;;;;;;;5052495;28;20045;-59
2022/01/04 01:01:31;;;;;;;13.32;9.10;;;;;;;;;;5051902;28;20053;-59
2022/01/04 01:03:58;;;;;;;14.93;9.07;;;;;;;;;;5052148;28;20044;-59
2022/01/04 01:06:24;;;;;;;12.43;9.15;;;;;;;;;;5052645;28;20052;-59
2022/01/04 01:08:51;;;;;;;11.98;9.88;;;;;;;;;;5051373;28;20041;-60
2022/01/04 01:11:17;;;;;;;10.40;9.30;;;;;;;;;;5052235;28;20119;-59
2022/01/04 01:13:43;;;;;;;10.88;9.02;;;;;;;;;;5052136;28;20103;-59
2022/01/04 01:16:10;;;;;;;12.90;10.00;;;;;;;;;;5051701;28;20129;-59
2022/01/04 01:18:36;;;;;;;15.50;10.23;;;;;;;;;;5052297;28;20098;-59
2022/01/04 01:21:05;;;;;;;12.82;9.65;;;;;;;;;;5051272;28;20492;-59
2022/01/04 01:23:32;;;;;;;12.25;10.05;;;;;;;;;;5052063;28;20408;-60
2022/01/04 01:25:58;;;;;;;11.35;10.15;;;;;;;;;;5052096;28;20049;-60
2022/01/04 01:28:25;;;;;;;12.48;10.60;;;;;;;;;;5051336;28;20048;-60
2022/01/04 01:30:51;;;;;;;12.50;10.52;;;;;;;;;;5051774;28;20041;-59
2022/01/04 01:33:18;;;;;;;12.52;10.32;;;;;;;;;;5051866;28;20052;-59
2022/01/04 01:35:44;;;;;;;11.38;10.23;;;;;;;;;;5051076;28;20127;-59
2022/01/04 01:38:14;;;;;;;12.65;10.10;;;;;;;;;;5051736;28;20530;-59
2022/01/04 01:40:41;;;;;;;12.10;10.73;;;;;;;;;;5052146;28;20057;-59
2022/01/04 01:43:07;;;;;;;12.63;10.60;;;;;;;;;;5050730;28;20491;-59
2022/01/04 01:45:34;;;;;;;11.77;10.52;;;;;;;;;;5051870;28;20045;-59
2022/01/04 01:48:00;;;;;;;12.82;11.15;;;;;;;;;;5051375;28;20111;-59
2022/01/04 01:50:27;;;;;;;11.40;9.88;;;;;;;;;;5050855;28;20785;-59
2022/01/04 01:52:53;;;;;;;12.48;10.68;;;;;;;;;;5051376;28;20111;-59
2022/01/04 01:55:22;;;;;;;11.77;10.15;;;;;;;;;;5051748;28;20045;-59
2022/01/04 01:57:49;;;;;;;12.38;10.50;;;;;;;;;;5050607;28;20044;-59
2022/01/04 02:00:17;;;;;;;13.25;11.00;;;;;;;;;;5051320;28;20492;-59
2022/01/04 02:02:43;;;;;;;11.95;10.52;;;;;;;;;;5051152;28;20107;-59
2022/01/04 02:05:10;;;;;;;11.40;10.02;;;;;;;;;;5050342;28;20484;-59
2022/01/04 02:07:37;;;;;;;14.20;10.25;;;;;;;;;;5051679;28;20045;-59
2022/01/04 02:10:05;;;;;;;12.38;10.75;;;;;;;;;;5051157;28;20114;-59
2022/01/04 02:12:34;;;;;;;13.55;11.00;;;;;;;;;;5051423;28;20102;-59
2022/01/04 02:15:00;;;;;;;12.75;11.30;;;;;;;;;;5050986;28;20041;-59
2022/01/04 02:17:26;;;;;;;13.02;10.55;;;;;;;;;;5050587;28;20115;-59
2022/01/04 02:19:55;;;;;;;11.60;10.25;;;;;;;;;;5050903;28;20041;-60
2022/01/04 02:22:21;;;;;;;12.30;10.30;;;;;;;;;;5050520;28;20048;-60
2022/01/04 02:24:48;;;;;;;13.18;11.20;;;;;;;;;;5050212;28;20091;-59
2022/01/04 02:27:15;;;;;;;11.95;10.70;;;;;;;;;;5051249;28;20098;-60
2022/01/04 02:29:41;;;;;;;11.35;10.25;;;;;;;;;;5051069;28;20099;-59
2022/01/04 02:32:07;;;;;;;13.02;10.30;;;;;;;;;;5050316;28;20060;-60
2022/01/04 02:34:34;;;;;;;11.65;10.23;;;;;;;;;;5051102;28;20053;-60
2022/01/04 02:37:01;;;;;;;11.60;9.85;;;;;;;;;;5051058;28;20396;-60
2022/01/04 02:39:28;;;;;;;12.15;10.90;;;;;;;;;;5050268;28;20045;-60
2022/01/04 02:41:54;;;;;;;12.27;10.70;;;;;;;;;;5050782;28;20049;-60
2022/01/04 02:44:20;;;;;;;13.63;10.70;;;;;;;;;;5050899;28;20057;-59
2022/01/04 02:46:46;;;;;;;10.93;9.82;;;;;;;;;;5049868;28;20082;-59
2022/01/04 02:49:12;;;;;;;12.30;11.05;;;;;;;;;;5051128;28;20107;-59
2022/01/04 02:51:40;;;;;;;14.30;11.35;;;;;;;;;;5050980;28;20045;-59
2022/01/04 02:54:08;;;;;;;14.02;10.95;;;;;;;;;;5050088;28;20045;-59
2022/01/04 02:56:34;;;;;;;11.88;10.68;;;;;;;;;;5050793;28;20401;-59
2022/01/04 02:59:03;;;;;;;13.38;10.60;;;;;;;;;;5050607;28;20041;-59
2022/01/04 03:01:30;;;;;;;12.40;10.80;;;;;;;;;;5049853;28;20048;-59
2022/01/04 03:03:56;;;;;;;13.40;10.35;;;;;;;;;;5050170;28;20060;-59
2022/01/04 03:06:23;;;;;;;12.80;10.77;;;;;;;;;;5050186;28;20094;-59
2022/01/04 03:08:49;;;;;;;11.93;10.43;;;;;;;;;;5050628;28;20049;-59
2022/01/04 03:11:16;;;;;;;13.40;10.98;;;;;;;;;;5050621;28;20443;-59
2022/01/04 03:13:43;;;;;;;13.02;11.57;;;;;;;;;;5049695;28;20554;-60
2022/01/04 03:16:09;;;;;;;14.98;11.55;;;;;;;;;;5050427;28;20529;-59
2022/01/04 03:18:42;;;;;;;12.82;11.18;;;;;;;;;;5050222;28;20041;-59
2022/01/04 03:21:10;;;;;;;13.02;11.30;;;;;;;;;;5049724;28;20488;-59
2022/01/04 03:23:36;;;;;;;13.63;12.23;;;;;;;;;;5050610;28;20198;-59
2022/01/04 03:26:02;;;;;;;12.57;11.27;;;;;;;;;;5050292;28;20119;-59
2022/01/04 03:28:30;;;;;;;13.85;11.65;;;;;;;;;;5049844;28;20446;-59
2022/01/04 03:30:56;;;;;;;13.13;11.38;;;;;;;;;;5050239;28;20049;-59
2022/01/04 03:33:22;;;;;;;13.88;12.23;;;;;;;;;;5052325;28;20049;-59
2022/01/04 03:35:49;;;;;;;14.23;12.63;;;;;;;;;;5053216;28;20045;-59
2022/01/04 03:38:15;;;;;;;13.30;11.82;;;;;;;;;;5054304;28;20049;-59
2022/01/04 03:40:41;;;;;;;13.30;11.90;;;;;;;;;;5054210;28;20044;-59
2022/01/04 03:43:07;;;;;;;13.15;11.88;;;;;;;;;;5053304;28;20054;-59
2022/01/04 03:45:35;;;;;;;15.38;12.80;;;;;;;;;;5054290;28;20049;-59
2022/01/04 03:48:01;;;;;;;13.07;11.80;;;;;;;;;;5053799;28;20553;-59
2022/01/04 03:50:27;;;;;;;13.77;12.43;;;;;;;;;;5053137;28;20049;-59
2022/01/04 03:52:53;;;;;;;13.57;12.13;;;;;;;;;;5053585;28;20122;-59
2022/01/04 03:55:20;;;;;;;15.77;13.00;;;;;;;;;;5053815;28;20476;-59
2022/01/04 03:57:46;;;;;;;13.18;11.75;;;;;;;;;;5052652;28;20500;-59
2022/01/04 04:00:13;;;;;;;14.70;12.55;;;;;;;;;;5053765;28;20436;-59
2022/01/04 04:02:40;;;;;;;14.43;12.88;;;;;;;;;;5053103;28;20099;-59
2022/01/04 04:05:07;;;;;;;14.60;12.88;;;;;;;;;;5053469;28;20110;-59
2022/01/04 04:07:33;;;;;;;14.07;12.55;;;;;;;;;;5053582;28;20053;-60
2022/01/04 04:09:59;;;;;;;14.23;12.75;;;;;;;;;;5052646;28;20045;-59
2022/01/04 04:12:26;;;;;;;13.88;12.57;;;;;;;;;;5053452;28;20045;-59
2022/01/04 04:14:52;;;;;;;13.82;12.50;;;;;;;;;;5053552;28;20049;-59
2022/01/04 04:17:18;;;;;;;13.45;12.15;;;;;;;;;;5052806;28;20049;-59
2022/01/04 04:19:45;;;;;;;14.73;13.27;;;;;;;;;;5053675;28;20045;-59
2022/01/04 04:22:12;;;;;;;16.38;13.52;;;;;;;;;;5053214;28;20048;-59
2022/01/04 04:24:38;;;;;;;13.82;12.43;;;;;;;;;;5052737;28;20053;-59
2022/01/04 04:27:05;;;;;;;14.52;13.02;;;;;;;;;;5053207;28;20053;-59
2022/01/04 04:29:32;;;;;;;14.68;13.05;;;;;;;;;;5053272;28;20488;-59
2022/01/04 04:31:58;;;;;;;14.40;12.90;;;;;;;;;;5052095;28;20048;-59
2022/01/04 04:34:25;;;;;;;14.77;13.18;;;;;;;;;;5053213;28;20099;-59
2022/01/04 04:36:52;;;;;;;14.90;13.32;;;;;;;;;;5052923;28;20045;-59
2022/01/04 04:39:18;;;;;;;15.48;14.00;;;;;;;;;;5052132;28;20106;-60
2022/01/04 04:41:44;;;;;;;16.50;13.93;;;;;;;;;;5052996;28;20614;-59
2022/01/04 04:44:11;;;;;;;14.95;13.40;;;;;;;;;;5051909;28;20075;-59
2022/01/04 04:46:37;;;;;;;14.70;13.25;;;;;;;;;;5052302;28;20053;-59
2022/01/04 04:49:05;;;;;;;15.15;13.55;;;;;;;;;;5052558;28;20049;-59
2022/01/04 04:51:31;;;;;;;15.57;13.90;;;;;;;;;;5052860;28;20132;-60
2022/01/04 04:53:59;;;;;;;15.73;14.15;;;;;;;;;;5051574;28;20049;-59
2022/01/04 04:56:25;;;;;;;15.80;14.25;;;;;;;;;;5052956;28;20049;-59
2022/01/04 04:58:51;;;;;;;16.20;14.30;;;;;;;;;;5052447;28;20049;-59
2022/01/04 05:01:17;;;;;;;16.45;14.80;;;;;;;;;;5052038;28;20719;-59
2022/01/04 05:03:44;;;;;;;15.30;13.80;;;;;;;;;;5052122;28;20049;-60
2022/01/04 05:06:10;;;;;;;15.05;13.57;;;;;;;;;;5051761;28;20458;-60
2022/01/04 05:08:36;;;;;;;15.60;14.00;;;;;;;;;;5052370;28;20072;-59
2022/01/04 05:11:04;;;;;;;15.85;14.35;;;;;;;;;;5052605;28;20052;-60
2022/01/04 05:13:30;;;;;;;16.52;14.80;;;;;;;;;;5051700;28;20049;-60
2022/01/04 05:15:57;;;;;;;15.90;14.30;;;;;;;;;;5052195;28;20051;-60
2022/01/04 05:18:23;;;;;;;16.98;15.00;;;;;;;;;;5052274;28;20044;-60
2022/01/04 05:20:49;;;;;;;16.55;14.85;;;;;;;;;;5051235;28;20095;-59
2022/01/04 05:23:15;;;;;;;16.73;14.77;;;;;;;;;;5052034;28;20099;-60
2022/01/04 05:25:42;;;;;;;16.27;14.70;;;;;;;;;;5052092;28;20488;-59
2022/01/04 05:28:09;;;;;;;16.80;15.10;;;;;;;;;;5051531;28;20045;-60
2022/01/04 05:30:36;;;;;;;16.88;15.15;;;;;;;;;;5051962;28;20098;-59
2022/01/04 05:33:02;;;;;;;17.73;15.60;;;;;;;;;;5051753;28;20048;-59
2022/01/04 05:35:28;;;;;;;16.13;14.63;;;;;;;;;;5051096;28;20075;-59
2022/01/04 05:37:55;;;;;;;16.42;14.65;;;;;;;;;;5051710;28;20041;-59
2022/01/04 05:40:21;;;;;;;17.83;15.90;;;;;;;;;;5051802;28;20460;-59
2022/01/04 05:42:47;;;;;;;17.17;15.38;;;;;;;;;;5051022;28;20099;-59
2022/01/04 05:45:15;;;;;;;17.45;15.20;;;;;;;;;;5051849;28;20045;-60
2022/01/04 05:47:41;;;;;;;16.88;15.18;;;;;;;;;;5051849;28;20381;-60
2022/01/04 05:50:08;;;;;;;18.10;16.10;;;;;;;;;;5050732;28;20044;-59
2022/01/04 05:52:34;;;;;;;16.77;15.05;;;;;;;;;;5051894;28;20044;-60
2022/01/04 05:55:01;;;;;;;17.40;15.75;;;;;;;;;;5051533;28;20439;-60
2022/01/04 05:57:27;;;;;;;17.92;15.98;;;;;;;;;;5050875;28;20045;-60
2022/01/04 05:59:53;;;;;;;17.55;15.82;;;;;;;;;;5051090;28;20439;-60
2022/01/04 06:02:21;;;;;;;19.00;16.13;;;;;;;;;;5050827;28;20045;-60
2022/01/04 06:04:47;;;;;;;18.88;16.95;;;;;;;;;;5050840;28;20513;-59
2022/01/04 06:07:13;;;;;;;17.90;16.02;;;;;;;;;;5051671;28;20049;-60
2022/01/04 06:09:43;;;;;;;18.15;16.35;;;;;;;;;;5050839;28;20052;-60
2022/01/04 06:14:53;;;;;;;18.40;16.60;;;;;;;;;;5050700;28;20053;-60
2022/01/04 06:17:23;;;;;;;18.15;16.35;;;;;;;;;;5050420;28;20095;-59
2022/01/04 06:19:49;;;;;;;18.58;16.60;;;;;;;;;;5051124;28;20045;-59
2022/01/04 06:22:15;;;;;;;17.35;15.52;;;;;;;;;;5051004;28;20487;-60
2022/01/04 06:24:41;;;;;;;17.90;16.10;;;;;;;;;;5050475;28;20056;-59
2022/01/04 06:27:08;;;;;;;18.30;16.17;;;;;;;;;;5051130;28;20040;-59
2022/01/04 06:29:35;;;;;;;18.65;16.75;;;;;;;;;;5051152;28;20072;-59
2022/01/04 06:32:03;;;;;;;19.00;17.00;;;;;;;;;;5049866;28;20496;-59
2022/01/04 06:34:31;;;;;;;17.77;16.08;;;;;;;;;;5051232;28;20048;-60
2022/01/04 06:36:57;;;;;;;18.65;15.95;;;;;;;;;;5050698;28;20067;-59
2022/01/04 06:39:23;;;;;;;19.30;17.38;;;;;;;;;;5050157;28;20045;-60
2022/01/04 06:41:50;;;;;;;19.10;17.10;;;;;;;;;;5050761;28;20053;-60
2022/01/04 06:44:16;;;;;;;19.08;17.08;;;;;;;;;;5050773;28;20049;-59
2022/01/04 06:46:45;;;;;;;19.17;17.23;;;;;;;;;;5050185;28;20052;-59
2022/01/04 06:49:11;;;;;;;19.73;17.63;;;;;;;;;;5050908;28;20049;-59
2022/01/04 06:51:39;;;;;;;19.23;17.33;;;;;;;;;;5050069;28;20045;-60
2022/01/04 06:54:06;;;;;;;18.88;16.85;;;;;;;;;;5050577;28;20045;-60
2022/01/04 06:56:35;;;;;;;19.85;17.67;;;;;;;;;;5050711;28;20502;-59
2022/01/04 06:59:01;;;;;;;19.92;17.50;;;;;;;;;;5049791;28;20083;-59
2022/01/04 07:01:28;;;;;;;19.63;17.52;;;;;;;;;;5050862;28;20094;-59
2022/01/04 07:03:54;;;;;;;19.88;17.88;;;;;;;;;;5050472;28;20049;-60
2022/01/04 07:06:20;;;;;;;20.92;18.77;;;;;;;;;;5050126;28;20446;-60
2022/01/04 07:08:48;;;;;;;20.88;18.67;;;;;;;;;;5052964;28;20515;-60
2022/01/04 07:11:15;;;;;;;20.20;18.02;;;;;;;;;;5054679;28;20049;-60
2022/01/04 07:13:41;;;;;;;21.38;18.88;;;;;;;;;;5053812;28;20052;-60
2022/01/04 07:16:07;;;;;;;23.25;19.90;;;;;;;;;;5054905;28;20052;-60
2022/01/04 07:18:33;;;;;;;21.25;19.00;;;;;;;;;;5054627;28;20052;-60
2022/01/04 07:21:00;;;;;;;21.55;18.73;;;;;;;;;;5053690;28;20447;-60
2022/01/04 07:23:26;;;;;;;21.05;18.85;;;;;;;;;;5054199;28;20106;-59
2022/01/04 07:25:54;;;;;;;21.38;18.85;;;;;;;;;;5054270;28;20049;-59
2022/01/04 07:28:20;;;;;;;20.58;18.40;;;;;;;;;;5053782;28;20130;-59
2022/01/04 07:30:47;;;;;;;20.15;18.05;;;;;;;;;;5054206;28;20045;-60
2022/01/04 07:33:13;;;;;;;20.50;18.33;;;;;;;;;;5054342;28;20049;-59
2022/01/04 07:35:39;;;;;;;20.40;18.30;;;;;;;;;;5053846;28;20099;-59
2022/01/04 07:38:06;;;;;;;22.10;19.83;;;;;;;;;;5053794;28;20091;-59
2022/01/04 07:40:32;;;;;;;21.30;19.10;;;;;;;;;;5054112;28;20041;-59
2022/01/04 07:43:00;;;;;;;21.60;19.33;;;;;;;;;;5053198;28;20044;-59
2022/01/04 07:45:27;;;;;;;21.25;19.02;;;;;;;;;;5054227;28;20051;-60
2022/01/04 07:47:53;;;;;;;21.38;19.17;;;;;;;;;;5053164;28;20049;-59
2022/01/04 07:50:20;;;;;;;23.90;19.10;;;;;;;;;;5054139;28;20099;-59
2022/01/04 07:52:48;;;;;;;21.95;19.67;;;;;;;;;;5053571;28;20041;-60
2022/01/04 07:55:15;;;;;;;20.92;18.83;;;;;;;;;;5053235;28;20380;-60
2022/01/04 07:57:42;;;;;;;21.00;18.83;;;;;;;;;;5053924;28;20488;-60
2022/01/04 08:00:10;;;;;;;21.48;19.27;;;;;;;;;;5053926;28;20045;-60
2022/01/04 08:02:38;;;;;;;21.05;18.92;;;;;;;;;;5053138;28;20072;-60
2022/01/04 08:05:05;;;;;;;22.13;19.73;;;;;;;;;;5053165;28;20060;-60
2022/01/04 08:07:32;;;;;;;22.05;19.83;;;;;;;;;;5053047;28;20049;-60
2022/01/04 08:09:59;;;;;;;21.08;18.95;;;;;;;;;;5052697;28;20620;-60
2022/01/04 08:12:26;;;;;;;21.80;18.75;;;;;;;;;;5054038;28;20044;-60
2022/01/04 08:14:52;;;;;;;20.90;18.80;;;;;;;;;;5053459;28;20049;-60
2022/01/04 08:17:20;;;;;;;21.73;19.42;;;;;;;;;;5053073;28;20045;-59
2022/01/04 08:19:46;;;;;;;22.17;18.48;;;;;;;;;;5051850;28;20049;-60
2022/01/04 08:22:12;;;;;;;21.65;19.17;;;;;;;;;;5053546;28;20411;-60
2022/01/04 08:24:39;;;;;;;21.25;18.95;;;;;;;;;;5052529;28;20558;-61
2022/01/04 08:27:05;;;;;;;22.83;20.48;;;;;;;;;;5053432;28;20297;-60
2022/01/04 08:29:31;;;;;;;21.02;18.77;;;;;;;;;;5053458;28;20068;-60
2022/01/04 08:31:58;;;;;;;22.13;19.83;;;;;;;;;;5052347;28;20052;-60
2022/01/04 08:34:25;;;;;;;22.08;19.77;;;;;;;;;;5053322;28;20045;-61
2022/01/04 08:36:51;;;;;;;21.40;19.20;;;;;;;;;;5052994;28;20484;-61
2022/01/04 08:39:18;;;;;;;21.23;18.95;;;;;;;;;;5052380;28;20480;-60
2022/01/04 08:41:46;;;;;;;22.13;19.77;;;;;;;;;;5053120;28;20049;-61
2022/01/04 08:44:13;;;;;;;21.48;18.75;;;;;;;;;;5052428;28;20053;-61
2022/01/04 08:46:40;;;;;;;21.27;18.88;;;;;;;;;;5053284;28;20091;-61
2022/01/04 08:49:07;;;;;;;22.95;19.40;;;;;;;;;;5052910;28;20048;-60
2022/01/04 08:51:34;;;;;;;21.05;18.63;;;;;;;;;;5052281;28;20045;-61
2022/01/04 08:54:01;;;;;;;25.08;19.30;;;;;;;;;;5052878;28;20506;-61
2022/01/04 08:56:27;;;;;;;22.42;20.13;;;;;;;;;;5053027;28;20102;-60
2022/01/04 08:58:53;;;;;;;22.17;19.65;;;;;;;;;;5051833;28;20099;-59
2022/01/04 09:01:19;;;;;;;22.80;20.08;;;;;;;;;;5052709;28;20045;-59
2022/01/04 09:03:46;;;;;;;22.40;19.75;;;;;;;;;;5052439;28;20045;-59
2022/01/04 09:06:13;;;;;;;22.10;19.75;;;;;;;;;;5051837;28;20049;-59
2022/01/04 09:08:40;;;;;;;21.27;18.98;;;;;;;;;;5052985;28;20048;-59
2022/01/04 09:11:06;;;;;;;21.73;19.52;;;;;;;;;;5052488;28;20391;-59
2022/01/04 09:13:36;;;;;;;22.85;20.52;;;;;;;;;;5052024;28;20102;-59
2022/01/04 09:18:49;;;;;;;24.30;20.25;;;;;;;;;;5052404;28;20138;-60
2022/01/04 09:21:16;;;;;;;23.05;20.38;;;;;;;;;;5051774;28;20135;-60
2022/01/04 09:23:45;;;;;;;22.17;19.77;;;;;;;;;;5052231;28;20102;-59
2022/01/04 09:26:12;;;;;;;23.45;20.58;;;;;;;;;;5051640;28;20136;-59
2022/01/04 09:28:38;;;;;;;22.52;20.13;;;;;;;;;;5052629;28;20049;-59
2022/01/04 09:31:04;;;;;;;22.60;20.27;;;;;;;;;;5051319;28;20079;-59
2022/01/04 09:33:31;;;;;;;24.90;20.48;;;;;;;;;;5051517;28;20622;-60
2022/01/04 09:35:57;;;;;;;22.23;19.90;;;;;;;;;;5051221;28;20041;-59
2022/01/04 09:38:24;;;;;;;21.67;19.40;;;;;;;;;;5052377;28;20040;-60
2022/01/04 09:40:53;;;;;;;22.83;20.45;;;;;;;;;;5050997;28;20049;-59
2022/01/04 09:43:20;;;;;;;22.48;19.83;;;;;;;;;;5052090;28;20488;-59
2022/01/04 09:45:46;;;;;;;20.80;18.60;;;;;;;;;;5051738;28;20048;-60
2022/01/04 09:48:13;;;;;;;21.67;19.42;;;;;;;;;;5051525;28;20099;-59
2022/01/04 09:50:40;;;;;;;22.27;19.55;;;;;;;;;;5052048;28;20049;-60
2022/01/04 09:53:07;;;;;;;22.55;19.55;;;;;;;;;;5051742;28;20119;-59
2022/01/04 09:55:33;;;;;;;22.17;19.83;;;;;;;;;;5051145;28;20488;-59
2022/01/04 09:58:02;;;;;;;21.20;19.00;;;;;;;;;;5051406;28;20502;-59
2022/01/04 10:00:28;;;;;;;21.92;18.85;;;;;;;;;;5051935;28;20037;-59
2022/01/04 10:03:08;;;;;;;20.00;17.52;;;;;;;;;;5050641;28;20411;-59
2022/01/04 10:05:34;;;;;;;19.45;17.13;;;;;;;;;;5051557;28;20064;-59
2022/01/04 10:08:02;;;;;;;20.02;17.52;;;;;;;;;;5051338;28;20048;-59
2022/01/04 10:10:29;;;;;;;19.55;16.95;;;;;;;;;;5050902;28;20377;-59
2022/01/04 10:12:59;;;;;;;17.52;15.70;;;;;;;;;;5051037;28;20495;-60
2022/01/04 10:15:30;;;;;;;18.13;16.23;;;;;;;;;;5051028;28;20041;-60
2022/01/04 10:17:57;;;;;;;17.63;14.77;;;;;;;;;;5050955;28;20545;-59
2022/01/04 10:20:23;;;;;;;16.17;14.48;;;;;;;;;;5051592;28;20048;-60
2022/01/04 10:22:50;;;;;;;15.60;13.68;;;;;;;;;;5050243;28;20495;-59
2022/01/04 10:25:19;;;;;;;15.25;13.65;;;;;;;;;;5051817;28;20057;-59
2022/01/04 10:27:46;;;;;;;14.90;12.77;;;;;;;;;;5050881;28;20495;-59
2022/01/04 10:30:22;;;;;;;13.82;12.43;;;;;;;;;;5050836;28;20041;-60
2022/01/04 10:32:50;;;;;;;13.52;12.15;;;;;;;;;;5050862;28;20041;-60
2022/01/04 10:35:24;;;;;;;13.60;12.13;;;;;;;;;;5051682;28;20542;-59
2022/01/04 10:37:50;;;;;;;13.18;10.77;;;;;;;;;;5050319;28;20045;-59
2022/01/04 10:40:17;;;;;;;11.52;10.32;;;;;;;;;;5051517;28;20122;-59
2022/01/04 10:42:43;;;;;;;13.25;10.50;;;;;;;;;;5050076;28;20091;-59
2022/01/04 10:45:21;;;;;;;11.18;9.75;;;;;;;;;;5050608;28;20053;-59
2022/01/04 10:47:47;;;;;;;10.30;9.15;;;;;;;;;;5051045;28;20053;-60
2022/01/04 10:50:28;;;;;;;11.50;9.50;;;;;;;;;;5051116;28;20045;-60
2022/01/04 10:52:54;;;;;;;9.73;8.13;;;;;;;;;;5050150;28;20041;-60
2022/01/04 10:55:20;;;;;;;8.18;7.38;;;;;;;;;;5051090;28;20558;-60
2022/01/04 10:57:48;;;;;;;8.68;7.78;;;;;;;;;;5049942;28;20045;-59
2022/01/04 11:00:15;;;;;;;8.43;7.63;;;;;;;;;;5051030;28;20091;-60
2022/01/04 11:02:41;;;;;;;7.93;7.13;;;;;;;;;;5050866;28;20049;-60
2022/01/04 11:05:13;;;;;;;8.85;6.70;;;;;;;;;;5049947;28;20570;-60
2022/01/04 11:07:54;;;;;;;7.90;5.88;;;;;;;;;;5051171;28;20454;-59
2022/01/04 11:10:22;;;;;;;8.10;6.43;;;;;;;;;;5051241;28;20098;-60
2022/01/04 11:12:48;;;;;;;7.38;6.40;;;;;;;;;;5049680;28;20042;-59
2022/01/04 11:15:15;;;;;;;7.10;6.03;;;;;;;;;;5050728;28;20049;-59
2022/01/04 11:17:41;;;;;;;9.07;6.43;;;;;;;;;;5051116;28;20045;-59
2022/01/04 11:20:08;;;;;;;7.53;6.10;;;;;;;;;;5050104;28;20041;-59
2022/01/04 11:22:35;;;;;;;8.23;6.35;;;;;;;;;;5050963;28;20045;-59
2022/01/04 11:25:03;;;;;;;13.15;6.18;;;;;;;;;;5050400;28;20478;-60
2022/01/04 11:27:31;;;;;;;7.82;6.30;;;;;;;;;;5050141;28;20049;-60
2022/01/04 11:29:58;;;;;;;9.95;6.50;;;;;;;;;;5050154;28;20048;-59
2022/01/04 11:32:25;;;;;;;6.28;5.68;;;;;;;;;;5050676;28;20407;-59
2022/01/04 11:34:57;;;;;;;6.35;5.75;;;;;;;;;;5049454;28;20496;-59
2022/01/04 11:37:25;;;;;;;7.72;6.25;;;;;;;;;;5050841;28;20094;-60
2022/01/04 11:39:52;;;;;;;6.65;5.93;;;;;;;;;;5049495;28;20136;-59
2022/01/04 11:42:34;;;;;;;7.95;5.68;;;;;;;;;;5050534;28;20045;-60
2022/01/04 11:45:02;;;;;;;8.45;6.22;;;;;;;;;;5050297;28;20492;-59
2022/01/04 11:47:30;;;;;;;6.07;5.25;;;;;;;;;;5049826;28;20543;-59
2022/01/04 11:50:09;;;;;;;10.27;6.05;;;;;;;;;;5050165;28;20071;-60
2022/01/04 11:52:40;;;;;;;6.80;5.68;;;;;;;;;;5050553;28;20048;-59
2022/01/04 11:55:15;;;;;;;7.28;5.85;;;;;;;;;;5052439;28;20049;-59
2022/01/04 11:57:41;;;;;;;9.18;6.43;;;;;;;;;;5054279;28;20049;-59
2022/01/04 12:00:09;;;;;;;7.15;6.10;;;;;;;;;;5054003;28;20049;-59
2022/01/04 12:02:38;;;;;;;6.95;6.25;;;;;;;;;;5053349;28;20554;-59
2022/01/04 12:05:13;;;;;;;7.72;6.20;;;;;;;;;;5053206;28;20053;-59
2022/01/04 12:07:49;;;;;;;7.97;5.35;;;;;;;;;;5054170;28;20041;-59
2022/01/04 12:10:31;;;;;;;7.05;5.57;;;;;;;;;;5053105;28;20045;-59
2022/01/04 12:12:58;;;;;;;6.63;5.20;;;;;;;;;;5053498;28;20446;-60
2022/01/04 12:15:43;;;;;;;7.55;4.70;;;;;;;;;;5052717;28;20491;-59
2022/01/04 12:18:31;;;;;;;5.05;4.47;;;;;;;;;;5053972;28;20098;-60
2022/01/04 12:20:58;;;;;;;8.65;4.82;;;;;;;;;;5052736;28;20045;-60
2022/01/04 12:23:42;;;;;;;5.45;4.00;;;;;;;;;;5052882;28;20447;-60
2022/01/04 12:26:25;;;;;;;5.55;3.63;;;;;;;;;;5053353;28;20557;-59
2022/01/04 12:29:10;;;;;;;4.20;3.58;;;;;;;;;;5053193;28;20458;-59
2022/01/04 12:31:37;;;;;;;5.68;3.88;;;;;;;;;;5053406;28;20067;-60
2022/01/04 12:34:07;;;;;;;5.97;3.35;;;;;;;;;;5053207;28;20126;-60
2022/01/04 12:36:35;;;;;;;4.70;2.78;;;;;;;;;;5052762;28;20049;-59
2022/01/04 12:39:02;;;;;;;4.85;3.10;;;;;;;;;;5053327;28;20108;-60
2022/01/04 12:41:30;;;;;;;4.97;2.78;;;;;;;;;;5053068;28;20488;-60
2022/01/04 12:43:56;;;;;;;4.85;2.63;;;;;;;;;;5052179;28;20447;-60
2022/01/04 12:46:26;;;;;;;6.28;2.90;;;;;;;;;;5053591;28;20111;-60
2022/01/04 12:48:55;;;;;;;4.65;2.30;;;;;;;;;;5052900;28;20087;-60
2022/01/04 12:51:24;;;;;;;3.47;2.22;;;;;;;;;;5052650;28;20045;-59
2022/01/04 12:53:50;;;;;;;5.72;2.30;;;;;;;;;;5052979;28;20515;-59
2022/01/04 12:56:16;;;;;;;3.95;2.10;;;;;;;;;;5053018;28;20044;-60
2022/01/04 12:58:43;;;;;;;4.07;2.20;;;;;;;;;;5051924;28;20041;-59
2022/01/04 13:01:09;;;;;;;5.30;2.13;;;;;;;;;;5052840;28;20049;-59
2022/01/04 13:03:36;;;;;;;4.65;2.30;;;;;;;;;;5052857;28;20053;-60
2022/01/04 13:06:04;;;;;;;4.82;1.85;;;;;;;;;;5050666;28;20505;-59
2022/01/04 13:08:32;;;;;;;6.30;1.88;;;;;;;;;;5053111;28;20076;-59
2022/01/04 13:11:02;;;;;;;4.43;1.65;;;;;;;;;;5052519;28;20049;-60
2022/01/04 13:13:30;;;;;;;3.35;1.38;;;;;;;;;;5051993;28;20049;-60
2022/01/04 13:15:56;;;;;;;3.95;1.52;;;;;;;;;;5052159;28;20071;-59
2022/01/04 13:18:26;;;;;;;3.83;1.45;;;;;;;;;;5051982;28;20041;-59
2022/01/04 13:20:52;;;;;;;1.85;1.15;;;;;;;;;;5052655;28;20049;-59
2022/01/04 13:23:24;;;;;;;3.05;1.30;;;;;;;;;;5052483;28;20090;-59
2022/01/04 13:25:59;;;;;;;2.78;1.60;;;;;;;;;;5051343;28;20466;-59
2022/01/04 13:28:25;;;;;;;2.92;1.38;;;;;;;;;;5052236;28;20446;-59
2022/01/04 13:30:51;;;;;;;3.33;1.60;;;;;;;;;;5052325;28;20059;-59
2022/01/04 13:33:21;;;;;;;4.40;1.58;;;;;;;;;;5051588;28;20450;-59
2022/01/04 13:35:48;;;;;;;2.45;1.20;;;;;;;;;;5052094;28;20049;-59
2022/01/04 13:38:16;;;;;;;1.90;1.20;;;;;;;;;;5052216;28;20044;-59
2022/01/04 13:40:43;;;;;;;1.60;1.08;;;;;;;;;;5051107;28;20049;-59
2022/01/04 13:43:12;;;;;;;2.63;1.10;;;;;;;;;;5052133;28;20476;-59
2022/01/04 13:45:42;;;;;;;2.22;1.10;;;;;;;;;;5052219;28;20048;-59
2022/01/04 13:48:08;;;;;;;2.28;1.00;;;;;;;;;;5051353;28;20044;-59
2022/01/04 13:50:36;;;;;;;1.42;0.90;;;;;;;;;;5052043;28;20045;-59
2022/01/04 13:53:13;;;;;;;2.85;1.05;;;;;;;;;;5051453;28;20056;-59
2022/01/04 13:55:46;;;;;;;1.92;0.82;;;;;;;;;;5051387;28;20049;-60
2022/01/04 13:58:28;;;;;;;5.93;1.48;;;;;;;;;;5051860;28;20098;-59
2022/01/04 14:00:54;;;;;;;4.68;0.93;;;;;;;;;;5050830;28;20103;-59
2022/01/04 14:03:27;;;;;;;3.08;0.88;;;;;;;;;;5051645;28;20053;-59
2022/01/04 14:05:53;;;;;;;4.60;1.10;;;;;;;;;;5051221;28;20056;-60
2022/01/04 14:08:19;;;;;;;3.60;1.05;;;;;;;;;;5050990;28;20450;-59
2022/01/04 14:10:49;;;;;;;2.45;1.00;;;;;;;;;;5051468;28;20076;-59
2022/01/04 14:13:29;;;;;;;2.35;0.98;;;;;;;;;;5051485;28;20045;-60
2022/01/04 14:16:05;;;;;;;2.50;1.10;;;;;;;;;;5050224;28;20045;-60
2022/01/04 14:18:31;;;;;;;3.47;1.15;;;;;;;;;;5050766;28;20049;-60
2022/01/04 14:20:57;;;;;;;3.40;1.23;;;;;;;;;;5050988;28;20052;-60
2022/01/04 14:23:34;;;;;;;4.65;1.50;;;;;;;;;;5049837;28;20361;-61
2022/01/04 14:26:04;;;;;;;3.38;1.58;;;;;;;;;;5047085;28;20364;-59
2022/01/04 14:28:32;;;;;;;2.78;1.45;;;;;;;;;;5050811;28;20044;-59
2022/01/04 14:30:58;;;;;;;2.80;1.35;;;;;;;;;;5050465;28;20530;-59
2022/01/04 14:33:24;;;;;;;4.82;1.70;;;;;;;;;;5050602;28;20103;-59
2022/01/04 14:35:50;;;;;;;4.07;1.27;;;;;;;;;;5049174;28;20045;-59